sensor_id;sensor_type;location;lat;lon;timestamp;P1;durP1;ratioP1;P2;durP2;ratioP2
11471;SDS011;47430;50.808;4.388;2022-11-27T00:00:39;12.80;;;4.37;;
11471;SDS011;47430;50.808;4.388;2022-11-27T00:03:05;11.23;;;4.07;;
11471;SDS011;47430;50.808;4.388;2022-11-27T00:05:31;14.37;;;5.57;;
11471;SDS011;47430;50.808;4.388;2022-11-27T00:07:57;8.47;;;4.07;;
11471;SDS011;47430;50.808;4.388;2022-11-27T00:10:23;12.10;;;4.00;;
11471;SDS011;47430;50.808;4.388;2022-11-27T00:12:50;13.47;;;4.87;;
11471;SDS011;47430;50.808;4.388;2022-11-27T00:15:16;22.63;;;4.87;;
11471;SDS011;47430;50.808;4.388;2022-11-27T00:17:43;10.33;;;3.63;;
11471;SDS011;47430;50.808;4.388;2022-11-27T00:20:09;11.97;;;4.77;;
11471;SDS011;47430;50.808;4.388;2022-11-27T00:22:35;11.73;;;4.57;;
11471;SDS011;47430;50.808;4.388;2022-11-27T00:25:01;14.90;;;4.63;;
11471;SDS011;47430;50.808;4.388;2022-11-27T00:27:27;10.50;;;4.63;;
11471;SDS011;47430;50.808;4.388;2022-11-27T00:29:53;10.23;;;4.27;;
11471;SDS011;47430;50.808;4.388;2022-11-27T00:32:19;9.50;;;4.43;;
11471;SDS011;47430;50.808;4.388;2022-11-27T00:34:45;11.13;;;3.87;;
11471;SDS011;47430;50.808;4.388;2022-11-27T00:37:11;12.53;;;4.00;;
11471;SDS011;47430;50.808;4.388;2022-11-27T00:39:38;15.60;;;4.57;;
11471;SDS011;47430;50.808;4.388;2022-11-27T00:42:04;17.23;;;4.50;;
11471;SDS011;47430;50.808;4.388;2022-11-27T00:44:31;11.60;;;4.10;;
11471;SDS011;47430;50.808;4.388;2022-11-27T00:46:58;17.30;;;4.67;;
11471;SDS011;47430;50.808;4.388;2022-11-27T00:49:24;12.70;;;4.17;;
11471;SDS011;47430;50.808;4.388;2022-11-27T00:51:50;12.63;;;4.27;;
11471;SDS011;47430;50.808;4.388;2022-11-27T00:54:16;8.73;;;4.07;;
11471;SDS011;47430;50.808;4.388;2022-11-27T00:56:42;10.53;;;4.63;;
11471;SDS011;47430;50.808;4.388;2022-11-27T00:59:09;11.13;;;4.23;;
11471;SDS011;47430;50.808;4.388;2022-11-27T01:01:36;14.47;;;4.47;;
11471;SDS011;47430;50.808;4.388;2022-11-27T01:04:03;12.27;;;3.90;;
11471;SDS011;47430;50.808;4.388;2022-11-27T01:06:29;10.37;;;3.60;;
11471;SDS011;47430;50.808;4.388;2022-11-27T01:08:56;12.63;;;4.00;;
11471;SDS011;47430;50.808;4.388;2022-11-27T01:11:23;14.50;;;4.27;;
11471;SDS011;47430;50.808;4.388;2022-11-27T01:13:50;11.73;;;3.37;;
11471;SDS011;47430;50.808;4.388;2022-11-27T01:16:20;7.17;;;3.40;;
11471;SDS011;47430;50.808;4.388;2022-11-27T01:18:47;6.97;;;3.10;;
11471;SDS011;47430;50.808;4.388;2022-11-27T01:21:14;10.03;;;3.53;;
11471;SDS011;47430;50.808;4.388;2022-11-27T01:23:41;9.90;;;3.73;;
11471;SDS011;47430;50.808;4.388;2022-11-27T01:26:07;12.97;;;3.80;;
11471;SDS011;47430;50.808;4.388;2022-11-27T01:28:34;11.77;;;3.10;;
11471;SDS011;47430;50.808;4.388;2022-11-27T01:31:07;10.20;;;3.13;;
11471;SDS011;47430;50.808;4.388;2022-11-27T01:33:34;10.97;;;3.67;;
11471;SDS011;47430;50.808;4.388;2022-11-27T01:36:01;13.40;;;4.30;;
11471;SDS011;47430;50.808;4.388;2022-11-27T01:38:28;9.23;;;4.13;;
11471;SDS011;47430;50.808;4.388;2022-11-27T01:41:02;10.80;;;3.80;;
11471;SDS011;47430;50.808;4.388;2022-11-27T01:46:05;7.67;;;3.73;;
11471;SDS011;47430;50.808;4.388;2022-11-27T01:48:35;7.27;;;3.23;;
11471;SDS011;47430;50.808;4.388;2022-11-27T01:51:01;11.87;;;3.43;;
11471;SDS011;47430;50.808;4.388;2022-11-27T01:53:27;4.27;;;2.60;;
11471;SDS011;47430;50.808;4.388;2022-11-27T01:55:55;8.90;;;4.03;;
11471;SDS011;47430;50.808;4.388;2022-11-27T01:58:24;8.23;;;3.67;;
11471;SDS011;47430;50.808;4.388;2022-11-27T02:00:52;9.67;;;3.33;;
11471;SDS011;47430;50.808;4.388;2022-11-27T02:03:18;10.77;;;3.80;;
11471;SDS011;47430;50.808;4.388;2022-11-27T02:05:44;7.77;;;3.47;;
11471;SDS011;47430;50.808;4.388;2022-11-27T02:08:11;6.57;;;3.40;;
11471;SDS011;47430;50.808;4.388;2022-11-27T02:18:59;5.23;;;3.17;;
11471;SDS011;47430;50.808;4.388;2022-11-27T02:23:38;5.43;;;3.10;;
11471;SDS011;47430;50.808;4.388;2022-11-27T02:34:12;7.33;;;2.77;;
11471;SDS011;47430;50.808;4.388;2022-11-27T02:36:40;8.97;;;2.63;;
11471;SDS011;47430;50.808;4.388;2022-11-27T02:39:10;7.23;;;2.37;;
11471;SDS011;47430;50.808;4.388;2022-11-27T02:41:49;9.37;;;3.67;;
11471;SDS011;47430;50.808;4.388;2022-11-27T02:44:18;5.00;;;2.73;;
11471;SDS011;47430;50.808;4.388;2022-11-27T02:46:45;9.83;;;3.43;;
11471;SDS011;47430;50.808;4.388;2022-11-27T02:49:13;11.30;;;3.27;;
11471;SDS011;47430;50.808;4.388;2022-11-27T02:51:42;4.77;;;2.40;;
11471;SDS011;47430;50.808;4.388;2022-11-27T02:54:10;10.23;;;3.17;;
11471;SDS011;47430;50.808;4.388;2022-11-27T02:56:38;7.60;;;2.77;;
11471;SDS011;47430;50.808;4.388;2022-11-27T02:59:06;5.23;;;2.77;;
11471;SDS011;47430;50.808;4.388;2022-11-27T03:01:35;3.00;;;2.67;;
11471;SDS011;47430;50.808;4.388;2022-11-27T03:04:05;6.33;;;3.47;;
11471;SDS011;47430;50.808;4.388;2022-11-27T03:06:35;9.53;;;3.30;;
11471;SDS011;47430;50.808;4.388;2022-11-27T03:09:04;7.40;;;3.10;;
11471;SDS011;47430;50.808;4.388;2022-11-27T03:11:30;7.67;;;2.93;;
11471;SDS011;47430;50.808;4.388;2022-11-27T03:13:58;7.80;;;3.40;;
11471;SDS011;47430;50.808;4.388;2022-11-27T03:21:26;10.77;;;3.90;;
11471;SDS011;47430;50.808;4.388;2022-11-27T03:23:53;7.23;;;3.00;;
11471;SDS011;47430;50.808;4.388;2022-11-27T03:26:19;9.07;;;3.20;;
11471;SDS011;47430;50.808;4.388;2022-11-27T03:28:45;13.97;;;4.03;;
11471;SDS011;47430;50.808;4.388;2022-11-27T03:31:11;6.93;;;2.87;;
11471;SDS011;47430;50.808;4.388;2022-11-27T03:33:38;6.60;;;3.20;;
11471;SDS011;47430;50.808;4.388;2022-11-27T03:36:12;6.83;;;3.73;;
11471;SDS011;47430;50.808;4.388;2022-11-27T03:38:38;7.63;;;3.30;;
11471;SDS011;47430;50.808;4.388;2022-11-27T03:41:12;7.93;;;3.37;;
11471;SDS011;47430;50.808;4.388;2022-11-27T03:43:43;7.27;;;3.67;;
11471;SDS011;47430;50.808;4.388;2022-11-27T03:46:16;13.63;;;3.37;;
11471;SDS011;47430;50.808;4.388;2022-11-27T03:49:04;6.60;;;3.50;;
11471;SDS011;47430;50.808;4.388;2022-11-27T03:55:11;7.30;;;3.00;;
11471;SDS011;47430;50.808;4.388;2022-11-27T03:57:21;8.93;;;2.80;;
11471;SDS011;47430;50.808;4.388;2022-11-27T03:59:50;5.30;;;3.37;;
11471;SDS011;47430;50.808;4.388;2022-11-27T04:02:26;9.10;;;3.07;;
11471;SDS011;47430;50.808;4.388;2022-11-27T04:04:53;11.33;;;2.60;;
11471;SDS011;47430;50.808;4.388;2022-11-27T04:07:19;11.27;;;3.70;;
11471;SDS011;47430;50.808;4.388;2022-11-27T04:09:46;6.77;;;2.80;;
11471;SDS011;47430;50.808;4.388;2022-11-27T04:12:12;6.07;;;2.77;;
11471;SDS011;47430;50.808;4.388;2022-11-27T04:14:38;8.57;;;3.30;;
11471;SDS011;47430;50.808;4.388;2022-11-27T04:17:04;9.27;;;3.83;;
11471;SDS011;47430;50.808;4.388;2022-11-27T04:19:30;8.83;;;3.90;;
11471;SDS011;47430;50.808;4.388;2022-11-27T04:21:56;7.83;;;3.30;;
11471;SDS011;47430;50.808;4.388;2022-11-27T04:24:22;5.07;;;3.13;;
11471;SDS011;47430;50.808;4.388;2022-11-27T04:26:48;5.30;;;3.07;;
11471;SDS011;47430;50.808;4.388;2022-11-27T04:29:14;8.70;;;4.00;;
11471;SDS011;47430;50.808;4.388;2022-11-27T04:31:41;6.93;;;3.43;;
11471;SDS011;47430;50.808;4.388;2022-11-27T04:34:07;8.87;;;3.43;;
11471;SDS011;47430;50.808;4.388;2022-11-27T04:36:33;6.60;;;3.23;;
11471;SDS011;47430;50.808;4.388;2022-11-27T04:38:59;9.70;;;3.63;;
11471;SDS011;47430;50.808;4.388;2022-11-27T04:41:25;6.20;;;3.53;;
11471;SDS011;47430;50.808;4.388;2022-11-27T04:43:52;5.43;;;2.77;;
11471;SDS011;47430;50.808;4.388;2022-11-27T04:46:18;8.17;;;3.37;;
11471;SDS011;47430;50.808;4.388;2022-11-27T04:48:44;9.57;;;3.50;;
11471;SDS011;47430;50.808;4.388;2022-11-27T04:51:10;7.50;;;3.70;;
11471;SDS011;47430;50.808;4.388;2022-11-27T04:53:36;9.53;;;3.80;;
11471;SDS011;47430;50.808;4.388;2022-11-27T04:56:02;9.57;;;3.50;;
11471;SDS011;47430;50.808;4.388;2022-11-27T04:58:28;9.33;;;4.00;;
11471;SDS011;47430;50.808;4.388;2022-11-27T05:00:54;11.77;;;4.03;;
11471;SDS011;47430;50.808;4.388;2022-11-27T05:03:20;7.40;;;3.40;;
11471;SDS011;47430;50.808;4.388;2022-11-27T05:05:53;9.43;;;3.40;;
11471;SDS011;47430;50.808;4.388;2022-11-27T05:08:19;9.53;;;3.40;;
11471;SDS011;47430;50.808;4.388;2022-11-27T05:10:45;8.87;;;3.53;;
11471;SDS011;47430;50.808;4.388;2022-11-27T05:13:11;9.03;;;4.13;;
11471;SDS011;47430;50.808;4.388;2022-11-27T05:15:37;6.03;;;3.20;;
11471;SDS011;47430;50.808;4.388;2022-11-27T05:18:03;7.20;;;3.63;;
11471;SDS011;47430;50.808;4.388;2022-11-27T05:20:29;7.80;;;3.93;;
11471;SDS011;47430;50.808;4.388;2022-11-27T05:22:55;8.53;;;3.93;;
11471;SDS011;47430;50.808;4.388;2022-11-27T05:25:21;10.90;;;3.90;;
11471;SDS011;47430;50.808;4.388;2022-11-27T05:27:47;7.33;;;3.30;;
11471;SDS011;47430;50.808;4.388;2022-11-27T05:30:13;7.00;;;3.30;;
11471;SDS011;47430;50.808;4.388;2022-11-27T05:32:40;7.27;;;3.60;;
11471;SDS011;47430;50.808;4.388;2022-11-27T05:35:06;15.17;;;3.97;;
11471;SDS011;47430;50.808;4.388;2022-11-27T05:37:32;8.07;;;3.00;;
11471;SDS011;47430;50.808;4.388;2022-11-27T05:39:58;9.73;;;3.40;;
11471;SDS011;47430;50.808;4.388;2022-11-27T05:42:24;9.97;;;4.30;;
11471;SDS011;47430;50.808;4.388;2022-11-27T05:44:50;8.33;;;3.97;;
11471;SDS011;47430;50.808;4.388;2022-11-27T05:47:16;9.47;;;4.13;;
11471;SDS011;47430;50.808;4.388;2022-11-27T05:49:42;10.80;;;3.33;;
11471;SDS011;47430;50.808;4.388;2022-11-27T05:52:08;8.17;;;3.93;;
11471;SDS011;47430;50.808;4.388;2022-11-27T05:54:34;10.17;;;4.20;;
11471;SDS011;47430;50.808;4.388;2022-11-27T05:57:00;9.10;;;3.80;;
11471;SDS011;47430;50.808;4.388;2022-11-27T05:59:26;11.00;;;4.83;;
11471;SDS011;47430;50.808;4.388;2022-11-27T06:01:52;14.10;;;4.27;;
11471;SDS011;47430;50.808;4.388;2022-11-27T06:04:18;14.07;;;4.53;;
11471;SDS011;47430;50.808;4.388;2022-11-27T06:06:44;8.87;;;4.27;;
11471;SDS011;47430;50.808;4.388;2022-11-27T06:09:10;9.03;;;3.90;;
11471;SDS011;47430;50.808;4.388;2022-11-27T06:11:37;10.87;;;3.97;;
11471;SDS011;47430;50.808;4.388;2022-11-27T06:14:05;9.07;;;4.93;;
11471;SDS011;47430;50.808;4.388;2022-11-27T06:16:32;10.50;;;4.17;;
11471;SDS011;47430;50.808;4.388;2022-11-27T06:18:58;9.13;;;4.07;;
11471;SDS011;47430;50.808;4.388;2022-11-27T06:21:24;13.03;;;5.37;;
11471;SDS011;47430;50.808;4.388;2022-11-27T06:23:54;8.33;;;3.90;;
11471;SDS011;47430;50.808;4.388;2022-11-27T06:26:22;11.03;;;4.03;;
11471;SDS011;47430;50.808;4.388;2022-11-27T06:28:48;11.73;;;4.17;;
11471;SDS011;47430;50.808;4.388;2022-11-27T06:31:16;8.10;;;3.93;;
11471;SDS011;47430;50.808;4.388;2022-11-27T06:33:42;9.10;;;4.57;;
11471;SDS011;47430;50.808;4.388;2022-11-27T06:36:08;8.10;;;4.03;;
11471;SDS011;47430;50.808;4.388;2022-11-27T06:38:35;9.70;;;4.30;;
11471;SDS011;47430;50.808;4.388;2022-11-27T06:41:03;13.30;;;4.83;;
11471;SDS011;47430;50.808;4.388;2022-11-27T06:43:30;7.90;;;4.83;;
11471;SDS011;47430;50.808;4.388;2022-11-27T06:45:57;12.20;;;4.27;;
11471;SDS011;47430;50.808;4.388;2022-11-27T06:48:23;6.47;;;3.57;;
11471;SDS011;47430;50.808;4.388;2022-11-27T06:50:49;7.37;;;3.30;;
11471;SDS011;47430;50.808;4.388;2022-11-27T06:53:16;8.77;;;3.93;;
11471;SDS011;47430;50.808;4.388;2022-11-27T06:55:42;12.23;;;5.13;;
11471;SDS011;47430;50.808;4.388;2022-11-27T06:58:09;9.07;;;4.57;;
11471;SDS011;47430;50.808;4.388;2022-11-27T07:00:35;8.77;;;4.33;;
11471;SDS011;47430;50.808;4.388;2022-11-27T07:03:01;9.53;;;4.00;;
11471;SDS011;47430;50.808;4.388;2022-11-27T07:05:27;10.97;;;4.83;;
11471;SDS011;47430;50.808;4.388;2022-11-27T07:07:54;6.47;;;3.93;;
11471;SDS011;47430;50.808;4.388;2022-11-27T07:10:20;9.70;;;3.40;;
11471;SDS011;47430;50.808;4.388;2022-11-27T07:12:46;11.77;;;4.10;;
11471;SDS011;47430;50.808;4.388;2022-11-27T07:15:12;9.27;;;4.43;;
11471;SDS011;47430;50.808;4.388;2022-11-27T07:17:38;11.90;;;4.07;;
11471;SDS011;47430;50.808;4.388;2022-11-27T07:20:05;11.17;;;3.83;;
11471;SDS011;47430;50.808;4.388;2022-11-27T07:22:32;9.83;;;4.87;;
11471;SDS011;47430;50.808;4.388;2022-11-27T07:24:58;10.03;;;3.97;;
11471;SDS011;47430;50.808;4.388;2022-11-27T07:27:24;12.20;;;4.33;;
11471;SDS011;47430;50.808;4.388;2022-11-27T07:29:50;13.33;;;4.60;;
11471;SDS011;47430;50.808;4.388;2022-11-27T07:32:16;10.67;;;3.90;;
11471;SDS011;47430;50.808;4.388;2022-11-27T07:34:43;11.00;;;4.00;;
11471;SDS011;47430;50.808;4.388;2022-11-27T07:37:09;11.17;;;4.27;;
11471;SDS011;47430;50.808;4.388;2022-11-27T07:39:35;6.97;;;4.03;;
11471;SDS011;47430;50.808;4.388;2022-11-27T07:42:01;9.10;;;3.70;;
11471;SDS011;47430;50.808;4.388;2022-11-27T07:44:27;11.60;;;5.50;;
11471;SDS011;47430;50.808;4.388;2022-11-27T07:46:53;8.03;;;4.30;;
11471;SDS011;47430;50.808;4.388;2022-11-27T07:49:19;7.40;;;4.47;;
11471;SDS011;47430;50.808;4.388;2022-11-27T07:51:46;8.70;;;3.93;;
11471;SDS011;47430;50.808;4.388;2022-11-27T07:54:12;11.17;;;4.63;;
11471;SDS011;47430;50.808;4.388;2022-11-27T07:56:38;10.97;;;4.57;;
11471;SDS011;47430;50.808;4.388;2022-11-27T07:59:04;9.60;;;5.03;;
11471;SDS011;47430;50.808;4.388;2022-11-27T08:01:30;11.33;;;4.10;;
11471;SDS011;47430;50.808;4.388;2022-11-27T08:03:56;10.23;;;4.60;;
11471;SDS011;47430;50.808;4.388;2022-11-27T08:06:23;9.90;;;4.13;;
11471;SDS011;47430;50.808;4.388;2022-11-27T08:08:50;9.17;;;4.77;;
11471;SDS011;47430;50.808;4.388;2022-11-27T08:11:18;7.43;;;4.23;;
11471;SDS011;47430;50.808;4.388;2022-11-27T08:13:45;9.07;;;4.97;;
11471;SDS011;47430;50.808;4.388;2022-11-27T08:16:11;8.83;;;3.97;;
11471;SDS011;47430;50.808;4.388;2022-11-27T08:18:37;9.00;;;4.00;;
11471;SDS011;47430;50.808;4.388;2022-11-27T08:21:03;7.57;;;4.13;;
11471;SDS011;47430;50.808;4.388;2022-11-27T08:23:29;7.90;;;4.33;;
11471;SDS011;47430;50.808;4.388;2022-11-27T08:25:55;12.47;;;4.73;;
11471;SDS011;47430;50.808;4.388;2022-11-27T08:28:21;7.93;;;4.80;;
11471;SDS011;47430;50.808;4.388;2022-11-27T08:30:54;10.10;;;4.33;;
11471;SDS011;47430;50.808;4.388;2022-11-27T08:33:20;8.03;;;3.97;;
11471;SDS011;47430;50.808;4.388;2022-11-27T08:35:47;6.67;;;3.97;;
11471;SDS011;47430;50.808;4.388;2022-11-27T08:38:13;6.90;;;4.37;;
11471;SDS011;47430;50.808;4.388;2022-11-27T08:40:39;13.87;;;4.30;;
11471;SDS011;47430;50.808;4.388;2022-11-27T08:43:05;8.57;;;4.10;;
11471;SDS011;47430;50.808;4.388;2022-11-27T08:45:31;11.13;;;4.13;;
11471;SDS011;47430;50.808;4.388;2022-11-27T08:47:57;7.67;;;4.17;;
11471;SDS011;47430;50.808;4.388;2022-11-27T08:50:24;13.33;;;4.07;;
11471;SDS011;47430;50.808;4.388;2022-11-27T08:52:50;5.93;;;3.43;;
11471;SDS011;47430;50.808;4.388;2022-11-27T08:55:16;9.57;;;3.83;;
11471;SDS011;47430;50.808;4.388;2022-11-27T08:57:42;11.10;;;3.97;;
11471;SDS011;47430;50.808;4.388;2022-11-27T09:00:08;6.00;;;4.07;;
11471;SDS011;47430;50.808;4.388;2022-11-27T09:02:34;10.07;;;4.30;;
11471;SDS011;47430;50.808;4.388;2022-11-27T09:05:00;8.10;;;4.00;;
11471;SDS011;47430;50.808;4.388;2022-11-27T09:07:29;7.97;;;4.03;;
11471;SDS011;47430;50.808;4.388;2022-11-27T09:09:55;7.07;;;3.80;;
11471;SDS011;47430;50.808;4.388;2022-11-27T09:12:21;7.97;;;4.20;;
11471;SDS011;47430;50.808;4.388;2022-11-27T09:14:47;10.07;;;4.73;;
11471;SDS011;47430;50.808;4.388;2022-11-27T09:17:13;10.33;;;4.20;;
11471;SDS011;47430;50.808;4.388;2022-11-27T09:19:39;12.73;;;4.50;;
11471;SDS011;47430;50.808;4.388;2022-11-27T09:22:05;10.50;;;4.30;;
11471;SDS011;47430;50.808;4.388;2022-11-27T09:24:31;13.70;;;4.43;;
11471;SDS011;47430;50.808;4.388;2022-11-27T09:26:57;12.37;;;6.83;;
11471;SDS011;47430;50.808;4.388;2022-11-27T09:29:23;6.87;;;4.03;;
11471;SDS011;47430;50.808;4.388;2022-11-27T09:31:49;10.33;;;3.87;;
11471;SDS011;47430;50.808;4.388;2022-11-27T09:34:15;8.33;;;4.40;;
11471;SDS011;47430;50.808;4.388;2022-11-27T09:36:42;10.47;;;5.27;;
11471;SDS011;47430;50.808;4.388;2022-11-27T09:39:08;8.57;;;4.27;;
11471;SDS011;47430;50.808;4.388;2022-11-27T09:46:36;10.43;;;5.97;;
11471;SDS011;47430;50.808;4.388;2022-11-27T09:49:06;9.00;;;4.60;;
11471;SDS011;47430;50.808;4.388;2022-11-27T09:51:34;11.47;;;5.03;;
11471;SDS011;47430;50.808;4.388;2022-11-27T09:56:28;10.67;;;5.30;;
11471;SDS011;47430;50.808;4.388;2022-11-27T09:58:58;10.77;;;4.80;;
11471;SDS011;47430;50.808;4.388;2022-11-27T10:01:29;15.07;;;5.03;;
11471;SDS011;47430;50.808;4.388;2022-11-27T10:03:56;11.53;;;5.40;;
11471;SDS011;47430;50.808;4.388;2022-11-27T10:11:30;11.53;;;5.27;;
11471;SDS011;47430;50.808;4.388;2022-11-27T10:16:33;8.37;;;4.97;;
11471;SDS011;47430;50.808;4.388;2022-11-27T10:26:49;9.93;;;5.00;;
11471;SDS011;47430;50.808;4.388;2022-11-27T10:31:47;12.50;;;5.03;;
11471;SDS011;47430;50.808;4.388;2022-11-27T10:34:30;14.00;;;5.07;;
11471;SDS011;47430;50.808;4.388;2022-11-27T10:36:59;8.53;;;4.70;;
11471;SDS011;47430;50.808;4.388;2022-11-27T10:39:35;12.03;;;5.10;;
11471;SDS011;47430;50.808;4.388;2022-11-27T10:42:14;7.30;;;4.80;;
11471;SDS011;47430;50.808;4.388;2022-11-27T10:44:47;10.43;;;5.20;;
11471;SDS011;47430;50.808;4.388;2022-11-27T10:47:16;9.13;;;4.57;;
11471;SDS011;47430;50.808;4.388;2022-11-27T10:49:43;11.63;;;5.20;;
11471;SDS011;47430;50.808;4.388;2022-11-27T10:52:13;11.93;;;4.30;;
11471;SDS011;47430;50.808;4.388;2022-11-27T10:54:39;11.77;;;5.07;;
11471;SDS011;47430;50.808;4.388;2022-11-27T10:57:10;8.97;;;4.23;;
11471;SDS011;47430;50.808;4.388;2022-11-27T10:59:45;9.90;;;4.63;;
11471;SDS011;47430;50.808;4.388;2022-11-27T11:02:27;11.47;;;5.00;;
11471;SDS011;47430;50.808;4.388;2022-11-27T11:04:53;9.87;;;4.83;;
11471;SDS011;47430;50.808;4.388;2022-11-27T11:07:22;7.77;;;4.53;;
11471;SDS011;47430;50.808;4.388;2022-11-27T11:09:48;7.57;;;4.20;;
11471;SDS011;47430;50.808;4.388;2022-11-27T11:12:15;7.43;;;4.23;;
11471;SDS011;47430;50.808;4.388;2022-11-27T11:14:51;12.80;;;5.73;;
11471;SDS011;47430;50.808;4.388;2022-11-27T11:17:21;9.33;;;4.77;;
11471;SDS011;47430;50.808;4.388;2022-11-27T11:19:48;11.10;;;5.17;;
11471;SDS011;47430;50.808;4.388;2022-11-27T11:22:15;12.93;;;5.03;;
11471;SDS011;47430;50.808;4.388;2022-11-27T11:24:48;11.17;;;4.83;;
11471;SDS011;47430;50.808;4.388;2022-11-27T11:29:48;8.93;;;4.47;;
11471;SDS011;47430;50.808;4.388;2022-11-27T11:32:25;11.90;;;4.90;;
11471;SDS011;47430;50.808;4.388;2022-11-27T11:34:58;7.60;;;4.27;;
11471;SDS011;47430;50.808;4.388;2022-11-27T11:37:32;13.80;;;5.43;;
11471;SDS011;47430;50.808;4.388;2022-11-27T11:42:26;8.87;;;4.47;;
11471;SDS011;47430;50.808;4.388;2022-11-27T11:47:48;8.47;;;4.90;;
11471;SDS011;47430;50.808;4.388;2022-11-27T11:50:37;10.47;;;5.17;;
11471;SDS011;47430;50.808;4.388;2022-11-27T11:53:05;11.20;;;5.33;;
11471;SDS011;47430;50.808;4.388;2022-11-27T11:55:36;11.23;;;5.87;;
11471;SDS011;47430;50.808;4.388;2022-11-27T12:00:45;9.57;;;5.07;;
11471;SDS011;47430;50.808;4.388;2022-11-27T12:03:17;15.90;;;6.20;;
11471;SDS011;47430;50.808;4.388;2022-11-27T12:11:03;13.13;;;6.00;;
11471;SDS011;47430;50.808;4.388;2022-11-27T12:21:03;8.57;;;5.13;;
11471;SDS011;47430;50.808;4.388;2022-11-27T12:29:25;7.87;;;4.53;;
11471;SDS011;47430;50.808;4.388;2022-11-27T12:31:58;12.50;;;5.67;;
11471;SDS011;47430;50.808;4.388;2022-11-27T12:44:25;12.40;;;4.80;;
11471;SDS011;47430;50.808;4.388;2022-11-27T12:49:20;9.57;;;4.10;;
11471;SDS011;47430;50.808;4.388;2022-11-27T12:51:50;8.23;;;3.90;;
11471;SDS011;47430;50.808;4.388;2022-11-27T12:54:38;9.33;;;4.53;;
11471;SDS011;47430;50.808;4.388;2022-11-27T12:57:09;6.73;;;4.00;;
11471;SDS011;47430;50.808;4.388;2022-11-27T12:59:38;8.73;;;4.23;;
11471;SDS011;47430;50.808;4.388;2022-11-27T13:04:51;8.50;;;4.23;;
11471;SDS011;47430;50.808;4.388;2022-11-27T13:07:19;6.70;;;4.23;;
11471;SDS011;47430;50.808;4.388;2022-11-27T13:12:18;8.37;;;4.40;;
11471;SDS011;47430;50.808;4.388;2022-11-27T13:14:45;9.60;;;4.30;;
11471;SDS011;47430;50.808;4.388;2022-11-27T13:17:16;6.67;;;4.30;;
11471;SDS011;47430;50.808;4.388;2022-11-27T13:19:43;7.33;;;4.40;;
11471;SDS011;47430;50.808;4.388;2022-11-27T13:22:11;8.37;;;4.37;;
11471;SDS011;47430;50.808;4.388;2022-11-27T13:24:39;8.47;;;4.50;;
11471;SDS011;47430;50.808;4.388;2022-11-27T13:27:07;10.43;;;4.33;;
11471;SDS011;47430;50.808;4.388;2022-11-27T13:29:42;5.80;;;3.80;;
11471;SDS011;47430;50.808;4.388;2022-11-27T13:32:08;7.27;;;3.97;;
11471;SDS011;47430;50.808;4.388;2022-11-27T13:34:43;7.63;;;4.90;;
11471;SDS011;47430;50.808;4.388;2022-11-27T13:40:38;9.93;;;4.47;;
11471;SDS011;47430;50.808;4.388;2022-11-27T13:42:47;11.27;;;5.20;;
11471;SDS011;47430;50.808;4.388;2022-11-27T13:45:22;9.77;;;4.23;;
11471;SDS011;47430;50.808;4.388;2022-11-27T13:47:48;6.43;;;3.60;;
11471;SDS011;47430;50.808;4.388;2022-11-27T13:50:17;6.20;;;3.90;;
11471;SDS011;47430;50.808;4.388;2022-11-27T13:52:51;9.97;;;4.43;;
11471;SDS011;47430;50.808;4.388;2022-11-27T13:55:31;8.63;;;4.50;;
11471;SDS011;47430;50.808;4.388;2022-11-27T13:57:58;11.73;;;4.67;;
11471;SDS011;47430;50.808;4.388;2022-11-27T14:00:44;10.23;;;3.83;;
11471;SDS011;47430;50.808;4.388;2022-11-27T14:03:23;8.57;;;4.27;;
11471;SDS011;47430;50.808;4.388;2022-11-27T14:05:50;6.47;;;3.80;;
11471;SDS011;47430;50.808;4.388;2022-11-27T14:08:18;6.73;;;3.83;;
11471;SDS011;47430;50.808;4.388;2022-11-27T14:10:56;7.47;;;3.77;;
11471;SDS011;47430;50.808;4.388;2022-11-27T14:13:31;8.93;;;4.10;;
11471;SDS011;47430;50.808;4.388;2022-11-27T14:16:00;8.33;;;3.80;;
11471;SDS011;47430;50.808;4.388;2022-11-27T14:18:28;5.80;;;3.47;;
11471;SDS011;47430;50.808;4.388;2022-11-27T14:20:57;6.47;;;4.10;;
11471;SDS011;47430;50.808;4.388;2022-11-27T14:23:31;7.77;;;3.60;;
11471;SDS011;47430;50.808;4.388;2022-11-27T14:26:40;9.00;;;3.87;;
11471;SDS011;47430;50.808;4.388;2022-11-27T14:28:53;8.70;;;4.33;;
11471;SDS011;47430;50.808;4.388;2022-11-27T14:31:30;6.63;;;3.80;;
11471;SDS011;47430;50.808;4.388;2022-11-27T14:33:57;6.43;;;4.00;;
11471;SDS011;47430;50.808;4.388;2022-11-27T14:36:27;6.53;;;3.53;;
11471;SDS011;47430;50.808;4.388;2022-11-27T14:38:54;6.00;;;3.60;;
11471;SDS011;47430;50.808;4.388;2022-11-27T14:41:21;6.30;;;3.70;;
11471;SDS011;47430;50.808;4.388;2022-11-27T14:43:47;6.00;;;3.90;;
11471;SDS011;47430;50.808;4.388;2022-11-27T14:46:17;6.10;;;4.03;;
11471;SDS011;47430;50.808;4.388;2022-11-27T14:48:48;5.40;;;3.67;;
11471;SDS011;47430;50.808;4.388;2022-11-27T14:51:16;7.73;;;4.23;;
11471;SDS011;47430;50.808;4.388;2022-11-27T14:53:46;7.73;;;4.07;;
11471;SDS011;47430;50.808;4.388;2022-11-27T14:56:13;7.13;;;4.17;;
11471;SDS011;47430;50.808;4.388;2022-11-27T14:58:46;6.70;;;3.80;;
11471;SDS011;47430;50.808;4.388;2022-11-27T15:01:20;9.07;;;4.33;;
11471;SDS011;47430;50.808;4.388;2022-11-27T15:03:53;6.13;;;3.80;;
11471;SDS011;47430;50.808;4.388;2022-11-27T15:06:19;8.47;;;4.10;;
11471;SDS011;47430;50.808;4.388;2022-11-27T15:08:46;5.57;;;4.10;;
11471;SDS011;47430;50.808;4.388;2022-11-27T15:11:15;6.03;;;3.87;;
11471;SDS011;47430;50.808;4.388;2022-11-27T15:13:41;6.47;;;4.03;;
11471;SDS011;47430;50.808;4.388;2022-11-27T15:18:39;7.93;;;3.90;;
11471;SDS011;47430;50.808;4.388;2022-11-27T15:21:09;8.40;;;4.73;;
11471;SDS011;47430;50.808;4.388;2022-11-27T15:23:35;9.17;;;3.87;;
11471;SDS011;47430;50.808;4.388;2022-11-27T15:31:27;8.10;;;3.83;;
11471;SDS011;47430;50.808;4.388;2022-11-27T15:34:04;7.47;;;4.23;;
11471;SDS011;47430;50.808;4.388;2022-11-27T15:36:40;5.30;;;3.43;;
11471;SDS011;47430;50.808;4.388;2022-11-27T15:41:39;6.73;;;3.60;;
11471;SDS011;47430;50.808;4.388;2022-11-27T15:44:14;7.07;;;4.13;;
11471;SDS011;47430;50.808;4.388;2022-11-27T15:46:40;7.10;;;4.30;;
11471;SDS011;47430;50.808;4.388;2022-11-27T15:49:15;7.70;;;4.10;;
11471;SDS011;47430;50.808;4.388;2022-11-27T15:51:41;7.83;;;4.00;;
11471;SDS011;47430;50.808;4.388;2022-11-27T15:54:07;9.23;;;4.00;;
11471;SDS011;47430;50.808;4.388;2022-11-27T15:56:33;7.70;;;4.60;;
11471;SDS011;47430;50.808;4.388;2022-11-27T15:59:00;6.07;;;3.90;;
11471;SDS011;47430;50.808;4.388;2022-11-27T16:01:26;8.10;;;3.73;;
11471;SDS011;47430;50.808;4.388;2022-11-27T16:03:52;6.67;;;5.00;;
11471;SDS011;47430;50.808;4.388;2022-11-27T16:06:18;7.43;;;4.00;;
11471;SDS011;47430;50.808;4.388;2022-11-27T16:08:52;5.87;;;4.13;;
11471;SDS011;47430;50.808;4.388;2022-11-27T16:11:18;8.20;;;4.47;;
11471;SDS011;47430;50.808;4.388;2022-11-27T16:13:44;8.73;;;4.30;;
11471;SDS011;47430;50.808;4.388;2022-11-27T16:16:10;8.50;;;4.40;;
11471;SDS011;47430;50.808;4.388;2022-11-27T16:18:36;5.03;;;3.30;;
11471;SDS011;47430;50.808;4.388;2022-11-27T16:21:03;8.73;;;4.23;;
11471;SDS011;47430;50.808;4.388;2022-11-27T16:23:29;5.90;;;3.63;;
11471;SDS011;47430;50.808;4.388;2022-11-27T16:25:56;8.00;;;4.87;;
11471;SDS011;47430;50.808;4.388;2022-11-27T16:28:22;9.30;;;4.60;;
11471;SDS011;47430;50.808;4.388;2022-11-27T16:30:48;7.17;;;4.70;;
11471;SDS011;47430;50.808;4.388;2022-11-27T16:33:14;6.60;;;4.10;;
11471;SDS011;47430;50.808;4.388;2022-11-27T16:35:43;5.37;;;3.80;;
11471;SDS011;47430;50.808;4.388;2022-11-27T16:38:09;6.80;;;4.20;;
11471;SDS011;47430;50.808;4.388;2022-11-27T16:40:35;6.50;;;4.10;;
11471;SDS011;47430;50.808;4.388;2022-11-27T16:43:02;8.07;;;4.33;;